createdAt,value
2019-01-23T00:01:35.373Z,14.20
2019-01-23T00:04:06.800Z,12.63
2019-01-23T00:06:36.274Z,13.37
2019-01-23T00:09:27.337Z,13.50
2019-01-23T00:11:56.903Z,13.83
2019-01-23T00:14:26.481Z,16.13
2019-01-23T00:16:56.055Z,15.38
2019-01-23T00:19:25.667Z,11.70
2019-01-23T00:21:55.150Z,13.25
2019-01-23T00:24:24.674Z,12.87
2019-01-23T00:27:01.657Z,14.40
2019-01-23T00:29:31.514Z,11.55
2019-01-23T00:32:01.003Z,13.70
2019-01-23T00:34:32.119Z,12.90
2019-01-23T00:37:01.661Z,11.13
2019-01-23T00:39:31.371Z,12.07
2019-01-23T00:42:00.844Z,12.90
2019-01-23T00:44:49.639Z,13.37
2019-01-23T00:47:19.150Z,14.30
2019-01-23T00:50:07.998Z,13.70
2019-01-23T00:52:37.556Z,13.33
2019-01-23T00:55:11.087Z,14.75
2019-01-23T00:57:40.677Z,13.27
2019-01-23T01:00:37.361Z,12.53
2019-01-23T01:03:07.060Z,9.77
2019-01-23T01:05:36.642Z,13.40
2019-01-23T01:08:06.196Z,14.00
2019-01-23T01:10:35.705Z,13.90
2019-01-23T01:13:05.361Z,14.30
2019-01-23T01:15:34.870Z,13.97
2019-01-23T01:18:04.409Z,12.05
2019-01-23T01:20:33.927Z,10.53
2019-01-23T01:23:03.453Z,14.97
2019-01-23T01:25:33.003Z,13.67
2019-01-23T01:28:02.829Z,12.90
2019-01-23T01:30:32.358Z,11.73
2019-01-23T01:36:03.656Z,10.70
2019-01-23T01:38:33.136Z,15.10
2019-01-23T01:44:05.582Z,11.00
2019-01-23T01:46:35.083Z,13.67
2019-01-23T01:49:04.688Z,14.53
2019-01-23T01:51:34.205Z,13.20
2019-01-23T01:54:03.809Z,11.45
2019-01-23T01:56:33.283Z,10.63
2019-01-23T01:59:03.081Z,12.33
2019-01-23T02:01:32.559Z,13.97
2019-01-23T02:04:02.046Z,12.43
2019-01-23T02:06:31.594Z,12.67
2019-01-23T02:11:55.518Z,11.80
2019-01-23T02:14:25.084Z,11.70
2019-01-23T02:16:54.647Z,12.60
2019-01-23T02:19:24.193Z,12.77
2019-01-23T02:21:53.801Z,13.17
2019-01-23T02:24:23.307Z,13.00
2019-01-23T02:29:41.353Z,10.50
2019-01-23T02:32:10.878Z,12.90
2019-01-23T02:37:21.500Z,16.00
2019-01-23T02:39:50.987Z,12.85
2019-01-23T02:42:20.568Z,11.57
2019-01-23T02:44:50.356Z,13.43
2019-01-23T02:47:19.885Z,11.20
2019-01-23T02:49:49.437Z,15.47
2019-01-23T02:52:19.043Z,11.10
2019-01-23T02:54:48.575Z,12.47
2019-01-23T02:57:18.095Z,14.20
2019-01-23T02:59:47.619Z,11.70
2019-01-23T03:02:17.129Z,12.83
2019-01-23T03:04:46.698Z,13.83
2019-01-23T03:07:16.171Z,11.17
2019-01-23T03:09:45.764Z,13.37
2019-01-23T03:12:15.231Z,11.93
2019-01-23T03:14:44.788Z,9.80
2019-01-23T03:17:14.302Z,11.70
2019-01-23T03:19:43.993Z,14.97
2019-01-23T03:22:13.650Z,11.80
2019-01-23T03:25:02.445Z,12.60
2019-01-23T03:27:32.082Z,14.70
2019-01-23T03:30:01.753Z,12.87
2019-01-23T03:32:31.675Z,14.20
2019-01-23T03:37:54.988Z,11.97
2019-01-23T03:40:43.786Z,10.50
2019-01-23T03:43:13.272Z,14.70
2019-01-23T03:45:42.873Z,12.73
2019-01-23T03:48:12.371Z,13.28
2019-01-23T03:50:41.892Z,10.20
2019-01-23T03:53:11.437Z,14.65
2019-01-23T03:55:40.931Z,13.90
2019-01-23T03:58:10.656Z,10.30
2019-01-23T04:00:40.504Z,12.93
2019-01-23T04:03:10.652Z,14.70
2019-01-23T04:05:40.562Z,14.00
2019-01-23T04:08:10.633Z,15.58
2019-01-23T04:10:40.550Z,15.05
2019-01-23T04:13:10.604Z,15.25
2019-01-23T04:15:40.595Z,13.03
2019-01-23T04:18:10.647Z,12.28
2019-01-23T04:20:40.838Z,11.12
2019-01-23T04:23:10.591Z,9.75
2019-01-23T04:25:40.724Z,15.00
2019-01-23T04:28:10.800Z,11.90
2019-01-23T04:30:40.706Z,11.65
2019-01-23T04:33:11.818Z,13.23
2019-01-23T04:35:41.366Z,12.70
2019-01-23T04:38:29.899Z,17.07
2019-01-23T04:40:59.406Z,13.13
2019-01-23T04:43:28.933Z,10.90
2019-01-23T04:45:58.546Z,14.60
2019-01-23T04:48:28.196Z,10.73
2019-01-23T04:51:16.726Z,13.30
2019-01-23T04:53:48.391Z,11.50
2019-01-23T04:56:17.866Z,17.00
2019-01-23T04:58:47.357Z,10.10
2019-01-23T05:01:16.931Z,12.60
2019-01-23T05:04:05.502Z,12.10
2019-01-23T05:06:35.055Z,11.57
2019-01-23T05:09:46.079Z,11.68
2019-01-23T05:12:15.570Z,11.88
2019-01-23T05:14:45.066Z,13.30
2019-01-23T05:17:14.633Z,13.45
2019-01-23T05:19:44.104Z,11.80
2019-01-23T05:25:02.106Z,11.43
2019-01-23T05:27:31.607Z,14.70
2019-01-23T05:32:55.183Z,12.63
2019-01-23T05:35:24.727Z,13.77
2019-01-23T05:37:54.218Z,15.23
2019-01-23T05:40:23.822Z,13.47
2019-01-23T05:42:53.371Z,15.13
2019-01-23T05:45:22.955Z,11.57
2019-01-23T05:47:52.421Z,13.90
2019-01-23T05:50:21.930Z,12.10
2019-01-23T05:52:51.415Z,12.27
2019-01-23T05:55:20.910Z,11.20
2019-01-23T05:58:10.252Z,10.60
2019-01-23T06:01:05.271Z,9.87
2019-01-23T06:03:34.801Z,11.00
2019-01-23T06:06:16.673Z,15.07
2019-01-23T06:08:46.188Z,12.60
2019-01-23T06:11:34.773Z,11.13
2019-01-23T06:14:04.543Z,10.97
2019-01-23T06:16:34.024Z,11.97
2019-01-23T06:19:15.496Z,9.48
2019-01-23T06:21:45.021Z,10.77
2019-01-23T06:24:14.522Z,10.47
2019-01-23T06:26:44.010Z,14.47
2019-01-23T06:29:13.840Z,13.58
2019-01-23T06:31:43.784Z,11.70
2019-01-23T06:34:13.799Z,11.20
2019-01-23T06:36:44.543Z,12.33
2019-01-23T06:39:14.101Z,12.43
2019-01-23T06:41:43.926Z,11.12
2019-01-23T06:44:13.961Z,10.80
2019-01-23T06:46:43.901Z,10.40
2019-01-23T06:52:14.940Z,15.10
2019-01-23T06:54:44.411Z,11.47
2019-01-23T06:57:14.018Z,10.13
2019-01-23T06:59:44.011Z,13.50
2019-01-23T07:02:14.031Z,10.32
2019-01-23T07:04:44.032Z,12.80
2019-01-23T07:07:14.097Z,11.85
2019-01-23T07:09:44.077Z,11.97
2019-01-23T07:12:14.054Z,12.28
2019-01-23T07:14:44.068Z,14.35
2019-01-23T07:20:02.639Z,10.50
2019-01-23T07:22:32.142Z,11.50
2019-01-23T07:25:01.796Z,13.97
2019-01-23T07:27:31.269Z,13.27
2019-01-23T07:32:54.805Z,11.80
2019-01-23T07:35:24.302Z,10.93
2019-01-23T07:38:13.085Z,11.90
2019-01-23T07:40:42.577Z,9.53
2019-01-23T07:43:12.055Z,11.22
2019-01-23T07:45:41.532Z,9.67
2019-01-23T07:48:11.002Z,13.15
2019-01-23T07:50:40.485Z,13.33
2019-01-23T07:53:09.951Z,11.90
2019-01-23T07:55:39.445Z,12.90
2019-01-23T07:58:08.930Z,9.50
2019-01-23T08:03:20.190Z,10.55
2019-01-23T08:05:49.684Z,11.67
2019-01-23T08:08:19.158Z,12.80
2019-01-23T08:10:48.634Z,10.10
2019-01-23T08:13:18.172Z,14.83
2019-01-23T08:15:47.659Z,13.90
2019-01-23T08:18:17.123Z,10.87
2019-01-23T08:20:46.637Z,12.60
2019-01-23T08:23:16.152Z,14.33
2019-01-23T08:25:46.256Z,15.13
2019-01-23T08:28:15.816Z,10.33
2019-01-23T08:30:56.950Z,9.77
2019-01-23T08:33:26.426Z,13.53
2019-01-23T08:35:55.982Z,10.93
2019-01-23T08:38:25.456Z,12.80
2019-01-23T08:40:55.060Z,12.70
2019-01-23T08:43:24.533Z,14.17
2019-01-23T08:48:54.751Z,14.77
2019-01-23T08:51:24.260Z,12.23
2019-01-23T08:53:53.769Z,15.00
2019-01-23T08:56:23.365Z,15.72
2019-01-23T08:58:52.860Z,13.20
2019-01-23T09:01:22.382Z,13.33
2019-01-23T09:03:51.992Z,15.03
2019-01-23T09:06:33.802Z,12.97
2019-01-23T09:09:15.825Z,16.45
2019-01-23T09:11:45.359Z,10.92
2019-01-23T09:14:16.430Z,12.45
2019-01-23T09:16:45.916Z,16.50
2019-01-23T09:19:15.421Z,12.40
2019-01-23T09:21:44.896Z,11.53
2019-01-23T09:24:14.440Z,13.48
2019-01-23T09:29:46.734Z,17.33
2019-01-23T09:35:55.246Z,15.70
2019-01-23T09:38:58.544Z,14.87
2019-01-23T09:41:51.380Z,15.87
2019-01-23T09:44:59.461Z,15.97
2019-01-23T09:47:38.236Z,15.20
2019-01-23T09:50:46.312Z,14.27
2019-01-23T09:53:37.906Z,13.23
2019-01-23T09:56:07.444Z,16.07
2019-01-23T09:58:36.927Z,18.03
2019-01-23T10:01:06.839Z,14.78
2019-01-23T10:03:36.366Z,16.37
2019-01-23T10:06:05.991Z,13.77
2019-01-23T10:08:35.526Z,16.00
2019-01-23T10:11:05.108Z,14.20
2019-01-23T10:13:34.608Z,17.48
2019-01-23T10:16:23.402Z,15.53
2019-01-23T10:18:56.188Z,15.07
2019-01-23T10:21:49.520Z,15.10
2019-01-23T10:24:19.014Z,16.47
2019-01-23T10:26:48.570Z,17.30
2019-01-23T10:29:18.041Z,14.07
2019-01-23T10:31:47.524Z,18.23
2019-01-23T10:34:17.015Z,14.93
2019-01-23T10:39:41.215Z,14.03
2019-01-23T10:45:05.743Z,19.23
2019-01-23T10:47:35.354Z,17.17
2019-01-23T10:50:05.550Z,15.63
2019-01-23T10:52:35.037Z,15.93
2019-01-23T10:58:07.179Z,15.00
2019-01-23T11:00:36.815Z,17.82
2019-01-23T11:03:10.122Z,18.20
2019-01-23T11:05:43.443Z,17.60
2019-01-23T11:08:12.987Z,18.23
2019-01-23T11:10:42.607Z,14.20
2019-01-23T11:13:12.070Z,15.20
2019-01-23T11:15:41.647Z,14.03
2019-01-23T11:18:11.216Z,16.47
2019-01-23T11:20:41.083Z,16.70
2019-01-23T11:23:11.133Z,16.45
2019-01-23T11:25:41.087Z,16.32
2019-01-23T11:28:11.134Z,13.62
2019-01-23T11:30:41.085Z,16.07
2019-01-23T11:33:11.118Z,15.00
2019-01-23T11:35:41.181Z,17.05
2019-01-23T11:38:11.307Z,18.92
2019-01-23T11:40:41.201Z,13.75
2019-01-23T11:43:11.218Z,17.37
2019-01-23T11:45:41.236Z,14.35
2019-01-23T11:48:11.297Z,14.30
2019-01-23T11:50:41.256Z,14.58
2019-01-23T11:56:06.864Z,15.40
2019-01-23T11:58:36.369Z,13.93
2019-01-23T12:01:05.992Z,15.43
2019-01-23T12:03:35.475Z,16.07
2019-01-23T12:06:05.034Z,14.57
2019-01-23T12:11:34.205Z,14.43
2019-01-23T12:14:15.635Z,15.63
2019-01-23T12:16:45.211Z,16.25
2019-01-23T12:19:14.755Z,12.10
2019-01-23T12:21:44.247Z,14.95
2019-01-23T12:24:13.757Z,12.37
2019-01-23T12:26:43.240Z,14.80
2019-01-23T12:29:12.807Z,14.13
2019-01-23T12:31:42.299Z,13.05
2019-01-23T12:34:11.783Z,15.50
2019-01-23T12:36:42.069Z,14.20
2019-01-23T12:39:11.551Z,13.73
2019-01-23T12:41:41.472Z,13.45
2019-01-23T12:44:11.613Z,15.13
2019-01-23T12:46:41.614Z,13.78
2019-01-23T12:49:11.501Z,14.30
2019-01-23T12:51:41.817Z,14.58
2019-01-23T12:54:11.630Z,15.05
2019-01-23T12:56:41.670Z,15.53
2019-01-23T12:59:11.597Z,14.68
2019-01-23T13:01:42.404Z,17.02
2019-01-23T13:04:32.073Z,14.03
2019-01-23T13:09:56.149Z,13.90
2019-01-23T13:12:25.672Z,14.17
2019-01-23T13:14:55.144Z,14.90
2019-01-23T13:17:36.620Z,14.87
2019-01-23T13:20:08.303Z,17.30
2019-01-23T13:22:37.794Z,15.47
2019-01-23T13:25:09.828Z,17.87
2019-01-23T13:27:39.322Z,16.23
2019-01-23T13:30:10.871Z,18.57
2019-01-23T13:32:40.475Z,17.37
2019-01-23T13:35:11.688Z,16.87
2019-01-23T13:37:41.691Z,17.57
2019-01-23T13:40:31.958Z,16.60
2019-01-23T13:45:56.208Z,18.50
2019-01-23T13:48:25.720Z,21.70
2019-01-23T13:50:55.407Z,18.33
2019-01-23T13:53:24.904Z,20.50
2019-01-23T13:55:54.419Z,18.70
2019-01-23T13:58:23.891Z,17.30
2019-01-23T14:00:53.405Z,23.00
2019-01-23T14:03:22.926Z,18.63
2019-01-23T14:05:52.608Z,20.83
2019-01-23T14:08:22.124Z,20.00
2019-01-23T14:11:04.293Z,22.80
2019-01-23T14:13:33.766Z,18.13
2019-01-23T14:16:03.522Z,25.23
2019-01-23T14:18:33.012Z,25.70
2019-01-23T14:21:02.504Z,22.37
2019-01-23T14:23:32.014Z,25.67
2019-01-23T14:26:01.487Z,20.87
2019-01-23T14:28:31.638Z,19.87
2019-01-23T14:31:01.338Z,21.00
2019-01-23T14:33:31.722Z,23.77
2019-01-23T14:39:06.149Z,21.43
2019-01-23T14:41:35.917Z,22.50
2019-01-23T14:44:05.729Z,22.07
2019-01-23T14:46:35.227Z,23.37
2019-01-23T14:49:04.717Z,23.17
2019-01-23T14:51:34.373Z,22.00
2019-01-23T14:54:15.843Z,23.03
2019-01-23T14:56:45.346Z,24.10
2019-01-23T14:59:14.983Z,22.17
2019-01-23T15:01:44.494Z,24.27
2019-01-23T15:04:13.974Z,24.90
2019-01-23T15:06:43.582Z,23.57
2019-01-23T15:09:13.059Z,23.20
2019-01-23T15:11:42.580Z,25.77
2019-01-23T15:14:12.161Z,25.43
2019-01-23T15:16:41.675Z,24.77
2019-01-23T15:19:11.150Z,23.47
2019-01-23T15:21:40.677Z,20.43
2019-01-23T15:24:10.121Z,23.07
2019-01-23T15:26:39.623Z,25.60
2019-01-23T15:29:09.161Z,26.30
2019-01-23T15:31:38.629Z,22.20
2019-01-23T15:34:08.308Z,23.62
2019-01-23T15:36:38.417Z,21.30
2019-01-23T15:39:08.780Z,21.07
2019-01-23T15:41:38.442Z,22.07
2019-01-23T15:44:08.107Z,24.20
2019-01-23T15:46:37.705Z,21.03
2019-01-23T15:49:07.278Z,22.27
2019-01-23T15:51:36.862Z,22.53
2019-01-23T15:54:06.419Z,23.83
2019-01-23T15:56:35.931Z,24.43
2019-01-23T15:59:05.591Z,21.60
2019-01-23T16:01:35.039Z,21.57
2019-01-23T16:04:04.657Z,22.90
2019-01-23T16:06:34.170Z,23.40
2019-01-23T16:17:42.203Z,22.50
2019-01-23T16:20:11.926Z,23.60
2019-01-23T16:22:41.674Z,22.57
2019-01-23T16:25:12.352Z,22.30
2019-01-23T16:27:41.882Z,21.65
2019-01-23T16:30:15.451Z,23.67
2019-01-23T16:32:44.922Z,21.20
2019-01-23T16:35:14.485Z,21.10
2019-01-23T16:37:44.141Z,20.40
2019-01-23T16:40:14.177Z,19.13
2019-01-23T16:42:43.680Z,18.67
2019-01-23T16:45:14.169Z,22.60
2019-01-23T16:47:43.691Z,18.98
2019-01-23T16:53:16.854Z,19.55
2019-01-23T16:55:46.347Z,22.87
2019-01-23T16:58:16.065Z,15.30
2019-01-23T17:00:45.621Z,17.98
2019-01-23T17:03:15.206Z,22.62
2019-01-23T17:05:44.807Z,18.87
2019-01-23T17:08:14.379Z,21.33
2019-01-23T17:10:43.957Z,20.63
2019-01-23T17:13:13.489Z,20.20
2019-01-23T17:15:42.997Z,22.27
2019-01-23T17:18:12.580Z,22.30
2019-01-23T17:20:44.711Z,18.30
2019-01-23T17:23:14.277Z,23.23
2019-01-23T17:25:44.180Z,20.03
2019-01-23T17:28:53.649Z,23.00
2019-01-23T17:31:23.145Z,20.80
2019-01-23T17:33:52.670Z,20.03
2019-01-23T17:36:22.183Z,19.30
2019-01-23T17:38:51.679Z,21.37
2019-01-23T17:41:22.769Z,19.23
2019-01-23T17:43:52.339Z,18.87
2019-01-23T17:46:21.809Z,18.67
2019-01-23T17:48:52.975Z,22.10
2019-01-23T17:51:22.480Z,16.47
2019-01-23T17:53:52.102Z,19.30
2019-01-23T17:56:21.596Z,16.77
2019-01-23T17:58:52.869Z,20.20
2019-01-23T18:01:22.359Z,23.10
2019-01-23T18:03:52.056Z,19.67
2019-01-23T18:06:21.678Z,16.97
2019-01-23T18:08:51.342Z,18.40
2019-01-23T18:11:20.878Z,17.83
2019-01-23T18:13:50.579Z,18.80
2019-01-23T18:16:20.140Z,20.73
2019-01-23T18:18:49.648Z,20.43
2019-01-23T18:21:19.277Z,23.60
2019-01-23T18:23:48.822Z,22.75
2019-01-23T18:26:37.422Z,17.42
2019-01-23T18:29:02.191Z,14.97
2019-01-23T18:31:55.617Z,16.00
2019-01-23T18:35:03.689Z,20.60
2019-01-23T18:37:56.177Z,18.23
2019-01-23T18:41:04.232Z,18.33
2019-01-23T18:43:58.023Z,15.63
2019-01-23T18:47:06.331Z,16.20
2019-01-23T18:50:00.471Z,15.77
2019-01-23T18:52:30.047Z,18.00
2019-01-23T18:58:15.225Z,17.13
2019-01-23T19:00:45.004Z,19.40
2019-01-23T19:03:14.501Z,17.97
2019-01-23T19:05:44.157Z,18.50
2019-01-23T19:08:14.236Z,18.83
2019-01-23T19:10:43.924Z,17.20
2019-01-23T19:13:13.535Z,18.03
2019-01-23T19:15:43.131Z,19.00
2019-01-23T19:18:12.723Z,19.57
2019-01-23T19:20:42.321Z,20.77
2019-01-23T19:23:11.910Z,18.63
2019-01-23T19:25:41.481Z,19.27
2019-01-23T19:28:10.968Z,21.23
2019-01-23T19:30:40.532Z,21.30
2019-01-23T19:33:13.546Z,19.07
2019-01-23T19:35:46.641Z,21.70
2019-01-23T19:38:16.188Z,20.27
2019-01-23T19:40:45.818Z,21.80
2019-01-23T19:43:15.352Z,23.17
2019-01-23T19:45:44.999Z,22.20
2019-01-23T19:48:14.661Z,19.40
2019-01-23T19:50:44.191Z,19.53
2019-01-23T19:53:13.713Z,19.00
2019-01-23T19:55:43.404Z,21.90
2019-01-23T19:58:12.987Z,18.62
2019-01-23T20:00:42.532Z,20.97
2019-01-23T20:03:12.214Z,22.87
2019-01-23T20:05:41.827Z,18.30
2019-01-23T20:08:11.316Z,23.37
2019-01-23T20:10:40.890Z,22.33
2019-01-23T20:13:10.441Z,21.43
2019-01-23T20:15:39.997Z,23.73
2019-01-23T20:18:10.487Z,23.87
2019-01-23T20:20:40.189Z,24.37
2019-01-23T20:23:09.681Z,21.13
2019-01-23T20:25:39.183Z,24.72
2019-01-23T20:28:10.541Z,22.20
2019-01-23T20:31:03.635Z,21.70
2019-01-23T20:33:33.150Z,23.57
2019-01-23T20:38:57.319Z,22.30
2019-01-23T20:41:26.865Z,21.57
2019-01-23T20:43:56.390Z,25.52
2019-01-23T20:46:25.913Z,23.10
2019-01-23T20:48:55.545Z,25.52
2019-01-23T20:51:25.049Z,22.87
2019-01-23T20:53:54.604Z,25.17
2019-01-23T20:56:24.232Z,22.53
2019-01-23T20:58:53.850Z,25.88
2019-01-23T21:01:23.457Z,24.13
2019-01-23T21:03:52.970Z,24.90
2019-01-23T21:06:22.496Z,26.40
2019-01-23T21:08:52.068Z,21.43
2019-01-23T21:11:21.594Z,22.90
2019-01-23T21:13:51.181Z,20.80
2019-01-23T21:16:20.693Z,24.80
2019-01-23T21:18:50.185Z,23.60
2019-01-23T21:21:19.690Z,21.53
2019-01-23T21:23:49.271Z,27.87
2019-01-23T21:26:18.829Z,23.73
2019-01-23T21:28:48.343Z,28.17
2019-01-23T21:31:17.940Z,22.73
2019-01-23T21:33:47.467Z,22.47
2019-01-23T21:36:16.964Z,22.00
2019-01-23T21:38:46.632Z,23.77
2019-01-23T21:41:16.121Z,24.87
2019-01-23T21:43:45.828Z,23.47
2019-01-23T21:46:15.640Z,23.00
2019-01-23T21:48:45.159Z,23.37
2019-01-23T21:51:14.698Z,24.23
2019-01-23T21:53:45.283Z,25.30
2019-01-23T21:56:15.010Z,29.77
2019-01-23T21:58:44.673Z,21.90
2019-01-23T22:01:14.269Z,24.23
2019-01-23T22:03:49.229Z,24.80
2019-01-23T22:06:34.230Z,27.47
2019-01-23T22:09:15.808Z,25.53
2019-01-23T22:11:45.441Z,26.93
2019-01-23T22:17:15.221Z,26.77
2019-01-23T22:19:44.769Z,26.03
2019-01-23T22:22:14.274Z,26.87
2019-01-23T22:24:43.826Z,26.70
2019-01-23T22:27:13.355Z,29.60
2019-01-23T22:29:42.948Z,29.53
2019-01-23T22:32:12.573Z,26.90
2019-01-23T22:34:42.115Z,29.07
2019-01-23T22:37:11.678Z,25.65
2019-01-23T22:42:31.455Z,26.47
2019-01-23T22:45:00.945Z,27.00
2019-01-23T22:47:30.452Z,23.10
2019-01-23T22:50:00.005Z,28.83
2019-01-23T22:52:29.929Z,30.17
2019-01-23T22:54:59.511Z,26.10
2019-01-23T22:57:29.079Z,27.27
2019-01-23T22:59:58.568Z,27.27
2019-01-23T23:02:40.352Z,27.00
2019-01-23T23:05:21.934Z,29.63
2019-01-23T23:07:51.505Z,27.97
2019-01-23T23:13:21.904Z,27.30
2019-01-23T23:15:51.593Z,25.63
2019-01-23T23:18:21.099Z,29.80
2019-01-23T23:21:09.723Z,29.93
2019-01-23T23:23:39.242Z,28.07
2019-01-23T23:26:09.033Z,28.50
2019-01-23T23:28:39.153Z,31.85
2019-01-23T23:31:09.129Z,29.95
2019-01-23T23:33:39.130Z,26.77
2019-01-23T23:36:09.276Z,33.25
2019-01-23T23:38:39.209Z,29.67
2019-01-23T23:41:10.324Z,23.03
2019-01-23T23:43:39.866Z,30.47
2019-01-23T23:46:09.475Z,27.13
2019-01-23T23:48:39.311Z,24.25
2019-01-23T23:51:09.192Z,29.63
2019-01-23T23:53:39.184Z,31.30
2019-01-23T23:59:11.393Z,32.17
